Catterick Garrison, United Kingdom
Current Conditions -  °F | °C
As of 6:50 PM on Sunday 23 Nov 2014 (Local Time) from EGXE Reporting Station
Clear Clear  
Wind Chill: -1°   Ceiling: Unl
Heat Index:   Visibility: 6mi
Dew Point:   Wind: 5mph
Humidity: 93%   Direction: 230°SW
Pressure: 30.06"   Gusts: NA
Location:  54.38°N, 1.74°W
Report Text: EGXE 231850Z AUTO 23004KT 9999 NCD 01/00 Q1018
Loading
Personal Weather Stations






























Interactive Weather Map New forecast layout! Learn more

10-Day Weather Forecast

Advertisements
Track Severe Weather on mobile